sensor_id;sensor_type;location;lat;lon;timestamp;P1;durP1;ratioP1;P2;durP2;ratioP2
39948;SDS011;29070;48.102;-1.652;2023-03-14T00:02:58;3.10;;;0.53;;
39948;SDS011;29070;48.102;-1.652;2023-03-14T00:07:59;1.55;;;0.40;;
39948;SDS011;29070;48.102;-1.652;2023-03-14T00:12:59;3.90;;;0.47;;
39948;SDS011;29070;48.102;-1.652;2023-03-14T00:18:00;3.33;;;0.53;;
39948;SDS011;29070;48.102;-1.652;2023-03-14T00:23:00;3.78;;;0.70;;
39948;SDS011;29070;48.102;-1.652;2023-03-14T00:28:02;6.90;;;0.77;;
39948;SDS011;29070;48.102;-1.652;2023-03-14T00:33:02;7.32;;;0.70;;
39948;SDS011;29070;48.102;-1.652;2023-03-14T00:38:03;5.50;;;0.70;;
39948;SDS011;29070;48.102;-1.652;2023-03-14T00:43:03;2.50;;;0.40;;
39948;SDS011;29070;48.102;-1.652;2023-03-14T00:48:03;6.40;;;0.70;;
39948;SDS011;29070;48.102;-1.652;2023-03-14T00:53:04;3.90;;;0.40;;
39948;SDS011;29070;48.102;-1.652;2023-03-14T00:58:04;4.77;;;1.17;;
39948;SDS011;29070;48.102;-1.652;2023-03-14T01:03:05;1.75;;;0.40;;
39948;SDS011;29070;48.102;-1.652;2023-03-14T01:08:07;2.03;;;0.25;;
39948;SDS011;29070;48.102;-1.652;2023-03-14T01:13:07;3.28;;;0.82;;
39948;SDS011;29070;48.102;-1.652;2023-03-14T01:18:08;2.80;;;0.88;;
39948;SDS011;29070;48.102;-1.652;2023-03-14T01:23:09;4.47;;;0.80;;
39948;SDS011;29070;48.102;-1.652;2023-03-14T01:28:09;8.83;;;1.20;;
39948;SDS011;29070;48.102;-1.652;2023-03-14T01:33:09;5.67;;;1.00;;
39948;SDS011;29070;48.102;-1.652;2023-03-14T01:38:11;9.02;;;1.45;;
39948;SDS011;29070;48.102;-1.652;2023-03-14T01:43:15;5.60;;;0.90;;
39948;SDS011;29070;48.102;-1.652;2023-03-14T01:48:17;8.68;;;1.05;;
39948;SDS011;29070;48.102;-1.652;2023-03-14T01:53:18;14.48;;;2.10;;
39948;SDS011;29070;48.102;-1.652;2023-03-14T01:58:21;19.25;;;1.95;;
39948;SDS011;29070;48.102;-1.652;2023-03-14T02:03:22;5.90;;;1.13;;
39948;SDS011;29070;48.102;-1.652;2023-03-14T02:08:25;6.63;;;1.25;;
39948;SDS011;29070;48.102;-1.652;2023-03-14T02:13:27;6.40;;;1.27;;
39948;SDS011;29070;48.102;-1.652;2023-03-14T02:18:28;10.25;;;1.50;;
39948;SDS011;29070;48.102;-1.652;2023-03-14T02:28:57;17.23;;;2.08;;
39948;SDS011;29070;48.102;-1.652;2023-03-14T02:33:58;8.80;;;1.13;;
39948;SDS011;29070;48.102;-1.652;2023-03-14T02:39:11;12.45;;;1.75;;
39948;SDS011;29070;48.102;-1.652;2023-03-14T02:44:17;12.32;;;1.48;;
39948;SDS011;29070;48.102;-1.652;2023-03-14T02:49:18;14.97;;;1.80;;
39948;SDS011;29070;48.102;-1.652;2023-03-14T02:54:18;7.72;;;1.08;;
39948;SDS011;29070;48.102;-1.652;2023-03-14T02:59:20;7.72;;;1.02;;
39948;SDS011;29070;48.102;-1.652;2023-03-14T03:04:20;5.77;;;1.20;;
39948;SDS011;29070;48.102;-1.652;2023-03-14T03:09:21;8.03;;;1.07;;
39948;SDS011;29070;48.102;-1.652;2023-03-14T03:14:21;4.17;;;0.90;;
39948;SDS011;29070;48.102;-1.652;2023-03-14T03:19:21;6.63;;;1.00;;
39948;SDS011;29070;48.102;-1.652;2023-03-14T03:24:22;3.43;;;1.03;;
39948;SDS011;29070;48.102;-1.652;2023-03-14T03:29:22;6.30;;;1.17;;
39948;SDS011;29070;48.102;-1.652;2023-03-14T03:34:22;10.10;;;1.60;;
39948;SDS011;29070;48.102;-1.652;2023-03-14T03:39:23;6.60;;;1.20;;
39948;SDS011;29070;48.102;-1.652;2023-03-14T03:44:23;6.65;;;1.40;;
39948;SDS011;29070;48.102;-1.652;2023-03-14T03:49:24;6.63;;;1.05;;
39948;SDS011;29070;48.102;-1.652;2023-03-14T03:54:24;13.20;;;1.57;;
39948;SDS011;29070;48.102;-1.652;2023-03-14T03:59:25;9.05;;;1.55;;
39948;SDS011;29070;48.102;-1.652;2023-03-14T04:04:25;9.77;;;1.88;;
39948;SDS011;29070;48.102;-1.652;2023-03-14T04:09:25;8.95;;;2.00;;
39948;SDS011;29070;48.102;-1.652;2023-03-14T04:14:26;14.93;;;2.13;;
39948;SDS011;29070;48.102;-1.652;2023-03-14T04:19:27;10.75;;;2.03;;
39948;SDS011;29070;48.102;-1.652;2023-03-14T04:24:27;11.17;;;1.70;;
39948;SDS011;29070;48.102;-1.652;2023-03-14T04:29:27;9.23;;;2.00;;
39948;SDS011;29070;48.102;-1.652;2023-03-14T04:34:28;6.30;;;1.50;;
39948;SDS011;29070;48.102;-1.652;2023-03-14T04:39:28;8.77;;;1.40;;
39948;SDS011;29070;48.102;-1.652;2023-03-14T04:44:28;8.60;;;1.60;;
39948;SDS011;29070;48.102;-1.652;2023-03-14T04:49:29;5.85;;;1.02;;
39948;SDS011;29070;48.102;-1.652;2023-03-14T04:54:29;5.77;;;1.07;;
39948;SDS011;29070;48.102;-1.652;2023-03-14T04:59:29;9.95;;;1.17;;
39948;SDS011;29070;48.102;-1.652;2023-03-14T05:04:30;11.63;;;2.10;;
39948;SDS011;29070;48.102;-1.652;2023-03-14T05:09:32;11.10;;;1.85;;
39948;SDS011;29070;48.102;-1.652;2023-03-14T05:14:33;8.97;;;1.37;;
39948;SDS011;29070;48.102;-1.652;2023-03-14T05:19:33;13.70;;;1.80;;
39948;SDS011;29070;48.102;-1.652;2023-03-14T05:24:33;8.53;;;1.47;;
39948;SDS011;29070;48.102;-1.652;2023-03-14T05:29:34;12.82;;;1.50;;
39948;SDS011;29070;48.102;-1.652;2023-03-14T05:34:34;8.83;;;1.60;;
39948;SDS011;29070;48.102;-1.652;2023-03-14T05:39:34;15.83;;;2.53;;
39948;SDS011;29070;48.102;-1.652;2023-03-14T05:44:35;7.93;;;1.93;;
39948;SDS011;29070;48.102;-1.652;2023-03-14T05:49:35;12.80;;;1.40;;
39948;SDS011;29070;48.102;-1.652;2023-03-14T05:54:35;6.90;;;1.70;;
39948;SDS011;29070;48.102;-1.652;2023-03-14T05:59:36;13.93;;;1.73;;
39948;SDS011;29070;48.102;-1.652;2023-03-14T06:04:36;12.87;;;1.77;;
39948;SDS011;29070;48.102;-1.652;2023-03-14T06:09:36;14.07;;;2.10;;
39948;SDS011;29070;48.102;-1.652;2023-03-14T06:14:37;9.47;;;2.13;;
39948;SDS011;29070;48.102;-1.652;2023-03-14T06:19:37;12.93;;;1.73;;
39948;SDS011;29070;48.102;-1.652;2023-03-14T06:24:37;9.63;;;1.97;;
39948;SDS011;29070;48.102;-1.652;2023-03-14T06:29:38;9.17;;;1.73;;
39948;SDS011;29070;48.102;-1.652;2023-03-14T06:34:38;9.90;;;2.00;;
39948;SDS011;29070;48.102;-1.652;2023-03-14T06:39:38;8.90;;;1.83;;
39948;SDS011;29070;48.102;-1.652;2023-03-14T06:44:39;6.78;;;1.50;;
39948;SDS011;29070;48.102;-1.652;2023-03-14T06:49:39;10.98;;;1.90;;
39948;SDS011;29070;48.102;-1.652;2023-03-14T06:54:40;10.27;;;1.33;;
39948;SDS011;29070;48.102;-1.652;2023-03-14T06:59:40;5.83;;;1.40;;
39948;SDS011;29070;48.102;-1.652;2023-03-14T07:04:40;10.23;;;1.30;;
39948;SDS011;29070;48.102;-1.652;2023-03-14T07:09:41;11.15;;;1.30;;
39948;SDS011;29070;48.102;-1.652;2023-03-14T07:14:41;8.37;;;1.50;;
39948;SDS011;29070;48.102;-1.652;2023-03-14T07:19:41;7.70;;;1.37;;
39948;SDS011;29070;48.102;-1.652;2023-03-14T07:24:42;7.95;;;1.40;;
39948;SDS011;29070;48.102;-1.652;2023-03-14T07:29:42;10.63;;;2.17;;
39948;SDS011;29070;48.102;-1.652;2023-03-14T07:34:43;12.43;;;1.60;;
39948;SDS011;29070;48.102;-1.652;2023-03-14T07:39:43;9.00;;;1.70;;
39948;SDS011;29070;48.102;-1.652;2023-03-14T07:44:44;9.00;;;1.67;;
39948;SDS011;29070;48.102;-1.652;2023-03-14T07:49:44;6.87;;;1.50;;
39948;SDS011;29070;48.102;-1.652;2023-03-14T07:54:44;8.70;;;1.97;;
39948;SDS011;29070;48.102;-1.652;2023-03-14T07:59:45;6.33;;;1.30;;
39948;SDS011;29070;48.102;-1.652;2023-03-14T08:04:45;5.47;;;1.53;;
39948;SDS011;29070;48.102;-1.652;2023-03-14T08:09:45;6.15;;;1.38;;
39948;SDS011;29070;48.102;-1.652;2023-03-14T08:14:46;7.90;;;1.97;;
39948;SDS011;29070;48.102;-1.652;2023-03-14T08:19:46;13.13;;;1.50;;
39948;SDS011;29070;48.102;-1.652;2023-03-14T08:24:47;7.72;;;1.38;;
39948;SDS011;29070;48.102;-1.652;2023-03-14T08:29:47;12.37;;;2.10;;
39948;SDS011;29070;48.102;-1.652;2023-03-14T08:34:47;8.93;;;1.57;;
39948;SDS011;29070;48.102;-1.652;2023-03-14T08:39:48;7.93;;;2.17;;
39948;SDS011;29070;48.102;-1.652;2023-03-14T08:44:48;7.77;;;1.20;;
39948;SDS011;29070;48.102;-1.652;2023-03-14T08:49:48;9.18;;;1.67;;
39948;SDS011;29070;48.102;-1.652;2023-03-14T08:54:49;5.90;;;1.53;;
39948;SDS011;29070;48.102;-1.652;2023-03-14T08:59:49;21.70;;;3.40;;
39948;SDS011;29070;48.102;-1.652;2023-03-14T09:04:50;15.23;;;1.97;;
39948;SDS011;29070;48.102;-1.652;2023-03-14T09:09:51;13.35;;;2.50;;
39948;SDS011;29070;48.102;-1.652;2023-03-14T09:14:51;5.93;;;1.50;;
39948;SDS011;29070;48.102;-1.652;2023-03-14T09:19:51;7.90;;;1.50;;
39948;SDS011;29070;48.102;-1.652;2023-03-14T09:24:52;11.13;;;1.20;;
39948;SDS011;29070;48.102;-1.652;2023-03-14T09:29:52;9.80;;;1.70;;
39948;SDS011;29070;48.102;-1.652;2023-03-14T09:34:52;17.00;;;2.03;;
39948;SDS011;29070;48.102;-1.652;2023-03-14T09:39:53;6.93;;;1.17;;
39948;SDS011;29070;48.102;-1.652;2023-03-14T09:44:57;5.13;;;0.90;;
39948;SDS011;29070;48.102;-1.652;2023-03-14T09:50:01;8.43;;;1.08;;
39948;SDS011;29070;48.102;-1.652;2023-03-14T09:55:04;8.82;;;1.85;;
39948;SDS011;29070;48.102;-1.652;2023-03-14T10:00:11;8.68;;;1.23;;
39948;SDS011;29070;48.102;-1.652;2023-03-14T10:05:17;6.35;;;1.15;;
39948;SDS011;29070;48.102;-1.652;2023-03-14T10:10:20;6.35;;;1.10;;
39948;SDS011;29070;48.102;-1.652;2023-03-14T10:15:24;5.60;;;1.25;;
39948;SDS011;29070;48.102;-1.652;2023-03-14T10:20:31;6.88;;;1.42;;
39948;SDS011;29070;48.102;-1.652;2023-03-14T10:25:35;8.00;;;1.00;;
39948;SDS011;29070;48.102;-1.652;2023-03-14T10:30:45;5.47;;;0.88;;
39948;SDS011;29070;48.102;-1.652;2023-03-14T10:35:52;7.57;;;1.10;;
39948;SDS011;29070;48.102;-1.652;2023-03-14T10:40:55;7.28;;;1.23;;
39948;SDS011;29070;48.102;-1.652;2023-03-14T10:46:15;8.25;;;1.00;;
39948;SDS011;29070;48.102;-1.652;2023-03-14T10:56:19;4.78;;;1.35;;
39948;SDS011;29070;48.102;-1.652;2023-03-14T11:06:44;9.43;;;1.20;;
39948;SDS011;29070;48.102;-1.652;2023-03-14T11:11:54;7.97;;;1.38;;
39948;SDS011;29070;48.102;-1.652;2023-03-14T11:22:41;5.82;;;1.20;;
39948;SDS011;29070;48.102;-1.652;2023-03-14T11:43:35;8.95;;;1.63;;
39948;SDS011;29070;48.102;-1.652;2023-03-14T11:48:53;10.45;;;1.55;;
39948;SDS011;29070;48.102;-1.652;2023-03-14T11:54:18;14.13;;;1.63;;
39948;SDS011;29070;48.102;-1.652;2023-03-14T11:59:27;10.10;;;1.10;;
39948;SDS011;29070;48.102;-1.652;2023-03-14T12:10:10;8.55;;;1.38;;
39948;SDS011;29070;48.102;-1.652;2023-03-14T12:15:18;5.47;;;1.17;;
39948;SDS011;29070;48.102;-1.652;2023-03-14T12:20:21;3.78;;;1.13;;
39948;SDS011;29070;48.102;-1.652;2023-03-14T12:25:24;4.72;;;1.08;;
39948;SDS011;29070;48.102;-1.652;2023-03-14T12:40:48;5.55;;;1.65;;
39948;SDS011;29070;48.102;-1.652;2023-03-14T12:51:18;7.82;;;1.33;;
39948;SDS011;29070;48.102;-1.652;2023-03-14T13:18:13;7.50;;;1.25;;
39948;SDS011;29070;48.102;-1.652;2023-03-14T13:23:34;5.43;;;1.13;;
39948;SDS011;29070;48.102;-1.652;2023-03-14T13:28:37;4.72;;;1.02;;
39948;SDS011;29070;48.102;-1.652;2023-03-14T13:33:37;7.05;;;1.15;;
39948;SDS011;29070;48.102;-1.652;2023-03-14T13:38:40;5.22;;;1.45;;
39948;SDS011;29070;48.102;-1.652;2023-03-14T13:43:43;10.70;;;1.50;;
39948;SDS011;29070;48.102;-1.652;2023-03-14T13:48:44;17.55;;;2.15;;
39948;SDS011;29070;48.102;-1.652;2023-03-14T13:53:49;8.45;;;2.15;;
39948;SDS011;29070;48.102;-1.652;2023-03-14T13:58:51;12.10;;;1.83;;
39948;SDS011;29070;48.102;-1.652;2023-03-14T14:03:53;11.82;;;1.95;;
39948;SDS011;29070;48.102;-1.652;2023-03-14T14:08:56;10.93;;;1.88;;
39948;SDS011;29070;48.102;-1.652;2023-03-14T14:14:05;10.40;;;1.50;;
39948;SDS011;29070;48.102;-1.652;2023-03-14T14:19:11;8.77;;;1.70;;
39948;SDS011;29070;48.102;-1.652;2023-03-14T14:24:13;7.60;;;1.67;;
39948;SDS011;29070;48.102;-1.652;2023-03-14T14:29:22;9.27;;;1.40;;
39948;SDS011;29070;48.102;-1.652;2023-03-14T14:34:28;10.77;;;1.20;;
39948;SDS011;29070;48.102;-1.652;2023-03-14T14:39:28;9.63;;;1.47;;
39948;SDS011;29070;48.102;-1.652;2023-03-14T14:44:32;6.80;;;1.27;;
39948;SDS011;29070;48.102;-1.652;2023-03-14T14:49:34;4.57;;;1.10;;
39948;SDS011;29070;48.102;-1.652;2023-03-14T14:54:38;16.63;;;2.40;;
39948;SDS011;29070;48.102;-1.652;2023-03-14T14:59:44;4.90;;;0.77;;
39948;SDS011;29070;48.102;-1.652;2023-03-14T15:04:45;6.18;;;1.10;;
39948;SDS011;29070;48.102;-1.652;2023-03-14T15:09:47;5.07;;;0.70;;
39948;SDS011;29070;48.102;-1.652;2023-03-14T15:14:47;5.43;;;0.90;;
39948;SDS011;29070;48.102;-1.652;2023-03-14T15:19:48;3.83;;;0.70;;
39948;SDS011;29070;48.102;-1.652;2023-03-14T15:24:48;5.22;;;0.93;;
39948;SDS011;29070;48.102;-1.652;2023-03-14T15:29:49;12.30;;;1.90;;
39948;SDS011;29070;48.102;-1.652;2023-03-14T15:34:49;6.63;;;0.93;;
39948;SDS011;29070;48.102;-1.652;2023-03-14T15:39:49;4.50;;;0.80;;
39948;SDS011;29070;48.102;-1.652;2023-03-14T15:44:50;6.03;;;1.33;;
39948;SDS011;29070;48.102;-1.652;2023-03-14T15:49:50;3.67;;;0.60;;
39948;SDS011;29070;48.102;-1.652;2023-03-14T15:54:51;2.78;;;0.63;;
39948;SDS011;29070;48.102;-1.652;2023-03-14T15:59:52;6.27;;;0.60;;
39948;SDS011;29070;48.102;-1.652;2023-03-14T16:04:52;7.43;;;0.70;;
39948;SDS011;29070;48.102;-1.652;2023-03-14T16:09:52;4.40;;;0.90;;
39948;SDS011;29070;48.102;-1.652;2023-03-14T16:14:53;5.33;;;0.80;;
39948;SDS011;29070;48.102;-1.652;2023-03-14T16:19:53;5.60;;;0.63;;
39948;SDS011;29070;48.102;-1.652;2023-03-14T16:24:53;6.60;;;0.80;;
39948;SDS011;29070;48.102;-1.652;2023-03-14T16:29:54;3.20;;;0.80;;
39948;SDS011;29070;48.102;-1.652;2023-03-14T16:34:54;7.10;;;0.90;;
39948;SDS011;29070;48.102;-1.652;2023-03-14T16:39:54;9.87;;;1.27;;
39948;SDS011;29070;48.102;-1.652;2023-03-14T16:44:55;6.60;;;1.07;;
39948;SDS011;29070;48.102;-1.652;2023-03-14T16:49:55;5.73;;;0.70;;
39948;SDS011;29070;48.102;-1.652;2023-03-14T16:54:55;7.97;;;0.97;;
39948;SDS011;29070;48.102;-1.652;2023-03-14T16:59:56;4.80;;;1.00;;
39948;SDS011;29070;48.102;-1.652;2023-03-14T17:04:56;2.27;;;0.77;;
39948;SDS011;29070;48.102;-1.652;2023-03-14T17:09:57;6.67;;;0.90;;
39948;SDS011;29070;48.102;-1.652;2023-03-14T17:14:58;5.13;;;0.93;;
39948;SDS011;29070;48.102;-1.652;2023-03-14T17:19:59;8.07;;;1.00;;
39948;SDS011;29070;48.102;-1.652;2023-03-14T17:24:59;6.33;;;0.80;;
39948;SDS011;29070;48.102;-1.652;2023-03-14T17:30:01;6.30;;;1.10;;
39948;SDS011;29070;48.102;-1.652;2023-03-14T17:35:02;6.47;;;1.02;;
39948;SDS011;29070;48.102;-1.652;2023-03-14T17:40:03;7.18;;;0.88;;
39948;SDS011;29070;48.102;-1.652;2023-03-14T17:45:05;6.57;;;1.48;;
39948;SDS011;29070;48.102;-1.652;2023-03-14T17:50:06;9.23;;;1.38;;
39948;SDS011;29070;48.102;-1.652;2023-03-14T17:55:07;6.43;;;1.00;;
39948;SDS011;29070;48.102;-1.652;2023-03-14T18:00:09;5.57;;;1.10;;
39948;SDS011;29070;48.102;-1.652;2023-03-14T18:05:10;6.10;;;1.08;;
39948;SDS011;29070;48.102;-1.652;2023-03-14T18:10:11;7.13;;;1.13;;
39948;SDS011;29070;48.102;-1.652;2023-03-14T18:15:13;6.78;;;1.30;;
39948;SDS011;29070;48.102;-1.652;2023-03-14T18:20:13;8.40;;;1.70;;
39948;SDS011;29070;48.102;-1.652;2023-03-14T18:25:14;11.73;;;1.35;;
39948;SDS011;29070;48.102;-1.652;2023-03-14T18:30:14;6.88;;;1.88;;
39948;SDS011;29070;48.102;-1.652;2023-03-14T18:35:15;8.30;;;1.85;;
39948;SDS011;29070;48.102;-1.652;2023-03-14T18:40:16;8.63;;;1.53;;
39948;SDS011;29070;48.102;-1.652;2023-03-14T18:45:18;5.70;;;1.70;;
39948;SDS011;29070;48.102;-1.652;2023-03-14T18:50:20;13.90;;;1.80;;
39948;SDS011;29070;48.102;-1.652;2023-03-14T18:55:21;12.98;;;2.03;;
39948;SDS011;29070;48.102;-1.652;2023-03-14T19:00:21;9.63;;;2.40;;
39948;SDS011;29070;48.102;-1.652;2023-03-14T19:05:22;9.27;;;2.45;;
39948;SDS011;29070;48.102;-1.652;2023-03-14T19:10:23;7.45;;;2.08;;
39948;SDS011;29070;48.102;-1.652;2023-03-14T19:15:24;8.30;;;2.67;;
39948;SDS011;29070;48.102;-1.652;2023-03-14T19:20:25;5.95;;;1.95;;
39948;SDS011;29070;48.102;-1.652;2023-03-14T19:25:25;5.47;;;1.93;;
39948;SDS011;29070;48.102;-1.652;2023-03-14T19:30:26;4.90;;;1.97;;
39948;SDS011;29070;48.102;-1.652;2023-03-14T19:35:29;6.72;;;1.55;;
39948;SDS011;29070;48.102;-1.652;2023-03-14T19:40:29;8.00;;;1.77;;
39948;SDS011;29070;48.102;-1.652;2023-03-14T19:45:30;9.43;;;2.63;;
39948;SDS011;29070;48.102;-1.652;2023-03-14T19:50:31;3.83;;;1.80;;
39948;SDS011;29070;48.102;-1.652;2023-03-14T19:55:33;6.53;;;1.85;;
39948;SDS011;29070;48.102;-1.652;2023-03-14T20:00:33;7.53;;;2.20;;
39948;SDS011;29070;48.102;-1.652;2023-03-14T20:05:34;9.13;;;2.57;;
39948;SDS011;29070;48.102;-1.652;2023-03-14T20:10:38;9.80;;;2.63;;
39948;SDS011;29070;48.102;-1.652;2023-03-14T20:15:39;8.93;;;2.15;;
39948;SDS011;29070;48.102;-1.652;2023-03-14T20:20:40;9.02;;;2.05;;
39948;SDS011;29070;48.102;-1.652;2023-03-14T20:25:41;9.63;;;2.17;;
39948;SDS011;29070;48.102;-1.652;2023-03-14T20:30:42;5.68;;;2.13;;
39948;SDS011;29070;48.102;-1.652;2023-03-14T20:35:42;11.43;;;2.72;;
39948;SDS011;29070;48.102;-1.652;2023-03-14T20:40:46;11.68;;;3.03;;
39948;SDS011;29070;48.102;-1.652;2023-03-14T20:45:53;11.38;;;3.30;;
39948;SDS011;29070;48.102;-1.652;2023-03-14T20:50:54;8.68;;;3.15;;
39948;SDS011;29070;48.102;-1.652;2023-03-14T20:55:55;7.65;;;2.38;;
39948;SDS011;29070;48.102;-1.652;2023-03-14T21:00:56;7.95;;;2.60;;
39948;SDS011;29070;48.102;-1.652;2023-03-14T21:05:57;9.50;;;2.28;;
39948;SDS011;29070;48.102;-1.652;2023-03-14T21:10:57;8.38;;;2.53;;
39948;SDS011;29070;48.102;-1.652;2023-03-14T21:15:58;7.63;;;2.40;;
39948;SDS011;29070;48.102;-1.652;2023-03-14T21:21:00;10.35;;;2.50;;
39948;SDS011;29070;48.102;-1.652;2023-03-14T21:26:00;12.18;;;2.72;;
39948;SDS011;29070;48.102;-1.652;2023-03-14T21:31:07;8.32;;;3.17;;
39948;SDS011;29070;48.102;-1.652;2023-03-14T21:36:10;6.38;;;2.33;;
39948;SDS011;29070;48.102;-1.652;2023-03-14T21:41:10;9.93;;;2.30;;
39948;SDS011;29070;48.102;-1.652;2023-03-14T21:46:11;7.18;;;2.85;;
39948;SDS011;29070;48.102;-1.652;2023-03-14T21:51:12;8.82;;;2.53;;
39948;SDS011;29070;48.102;-1.652;2023-03-14T21:56:12;6.97;;;3.20;;
39948;SDS011;29070;48.102;-1.652;2023-03-14T22:01:13;13.07;;;6.07;;
39948;SDS011;29070;48.102;-1.652;2023-03-14T22:06:13;10.67;;;4.83;;
39948;SDS011;29070;48.102;-1.652;2023-03-14T22:11:13;14.07;;;4.83;;
39948;SDS011;29070;48.102;-1.652;2023-03-14T22:16:14;16.05;;;5.57;;
39948;SDS011;29070;48.102;-1.652;2023-03-14T22:21:14;16.37;;;5.87;;
39948;SDS011;29070;48.102;-1.652;2023-03-14T22:26:16;12.77;;;4.57;;
39948;SDS011;29070;48.102;-1.652;2023-03-14T22:31:17;11.88;;;5.03;;
39948;SDS011;29070;48.102;-1.652;2023-03-14T22:36:17;17.57;;;5.43;;
39948;SDS011;29070;48.102;-1.652;2023-03-14T22:41:17;16.10;;;5.40;;
39948;SDS011;29070;48.102;-1.652;2023-03-14T22:46:18;23.87;;;5.60;;
39948;SDS011;29070;48.102;-1.652;2023-03-14T22:51:18;13.80;;;4.70;;
39948;SDS011;29070;48.102;-1.652;2023-03-14T22:56:18;16.30;;;6.60;;
39948;SDS011;29070;48.102;-1.652;2023-03-14T23:01:19;10.98;;;5.90;;
39948;SDS011;29070;48.102;-1.652;2023-03-14T23:06:19;14.43;;;6.17;;
39948;SDS011;29070;48.102;-1.652;2023-03-14T23:11:20;13.50;;;6.10;;
39948;SDS011;29070;48.102;-1.652;2023-03-14T23:16:20;11.63;;;5.60;;
39948;SDS011;29070;48.102;-1.652;2023-03-14T23:21:21;14.73;;;6.13;;
39948;SDS011;29070;48.102;-1.652;2023-03-14T23:26:25;16.90;;;5.85;;
39948;SDS011;29070;48.102;-1.652;2023-03-14T23:31:26;15.80;;;5.78;;
39948;SDS011;29070;48.102;-1.652;2023-03-14T23:36:27;15.95;;;5.10;;
39948;SDS011;29070;48.102;-1.652;2023-03-14T23:41:28;12.88;;;5.03;;
39948;SDS011;29070;48.102;-1.652;2023-03-14T23:46:29;14.30;;;5.20;;
39948;SDS011;29070;48.102;-1.652;2023-03-14T23:51:30;14.20;;;4.50;;
39948;SDS011;29070;48.102;-1.652;2023-03-14T23:56:30;16.70;;;4.07;;
